Sanford, Michigan
Current Conditions -  °F | °C
As of 10:55 PM on Saturday 22 Nov 2014 (Local Time) from KIKW Reporting Station
Haze Haze  
Wind Chill:   Ceiling: 500
Heat Index:   Visibility: 4mi
Dew Point:   Wind: 7mph
Humidity: 97%   Direction: 220°SW
Pressure: 29.87"   Gusts: NA
Location:  43.67°N, 84.38°W
Report Text: KIKW 230355Z AUTO 22006KT 4SM BR OVC005 08/07 A2987 RMK AO2 T00750071
Loading
Personal Weather Stations






























Interactive Weather Map New forecast layout! Learn more

10-Day Weather Forecast

Advertisements
Track Severe Weather on mobile